Brisbane - Nearby METAR Reports

YBBN - Brisbane Intl Ar, Australia
Distance from station: NNE 11km
Updated: 18/06/2021 19:30
Clear
Clear
 Wind from W
Wind: W 24 km/h
Temperature: 16°C
Dew Point: 4°C
Humidity: 45%
Barometer: 1013 hPa
Summary: Clear
Visibility: greater than 10 km
2021/06/18 09:30 YBBN 180930Z 27013KT CAVOK 16/04 Q1013
YAMB - Amberley, Australia
Distance from station: WSW 42km
Updated: 18/06/2021 19:48
unable to load YAMB data RC=
unable to load YAMB data RC=
 
 
YBCG - Coolangatta Aws, Australia
Distance from station: SSE 102km
Updated: 18/06/2021 19:48
unable to load YBCG data RC=
unable to load YBCG data RC=